ilmateenistus.ee keskkonnaagentuur.ee
EETN Tallinna lennuväli
FTEO31 EETN 230500
TAF EETN 230515Z 2306/2406 18006KT 9999 SCT008 BKN025 TEMPO 2306/2317
    3000 SHRASN BKN004 BKN015CB BECMG 2308/2310 29012KT TEMPO 2319/2406
    5000 SHSNRA BKN006 SCT020CB=

SPECI EETN 230515Z 20004KT 130V240 9999 SCT009 OVC013 04/02 Q1002=
Tallinna lennuväli
EEKA Kärdla lennuväli
FCEO32 EETN 230300
TAF EEKA 230300Z 2304/2310 34015G25KT 9999 BKN010 BKN020 TEMPO
    2304/2310 3000 SHRASN BKN004 BKN015CB TEMPO 2305/2310 34020G30KT=

METAR EEKA 230450Z 32010KT 9999 -RA OVC006 04/03 Q1002=
Kärdla lennuväli
EEKE Kuressaare lennuväli
FCEO32 EETN 230300
TAF EEKE 230300Z 2304/2310 31012G25KT 9999 BKN008 BKN015 TEMPO
    2304/2310 3000 SHRASN BKN004 BKN015CB TEMPO 2305/2310 32020G32KT=

METAR EEKE 230450Z 31010KT 280V340 9999 -RA BKN009 OVC012 03/02 Q1003=
Kuressaare lennuväli
EEPU Pärnu lennuväli
METAR EEPU 230450Z NIL=
Pärnu lennuväli
EETU Tartu lennuväli
METAR EETU 230450Z AUTO 18010KT 9999 BKN059/// OVC080/// 03/M00 Q1003=
Tartu lennuväli
EEEI Ämari lennuväli
METAR EEEI 230450Z 14004KT 9999 FEW007 BKN018 03/02 Q1002 NOSIG=
Ämari lennuväli